sensor_id;sensor_type;location;lat;lon;timestamp;P1;durP1;ratioP1;P2;durP2;ratioP2
57029;SDS011;42920;45.306;20.448;2023-04-25T10:58:34;5.13;;;3.15;;
57029;SDS011;42920;45.306;20.448;2023-04-25T11:01:00;5.97;;;3.00;;
57029;SDS011;42920;45.306;20.448;2023-04-25T11:03:26;6.22;;;3.75;;
57029;SDS011;42920;45.306;20.448;2023-04-25T11:05:52;9.90;;;4.25;;
57029;SDS011;42920;45.306;20.448;2023-04-25T11:08:20;5.65;;;3.35;;
57029;SDS011;42920;45.306;20.448;2023-04-25T11:11:12;6.75;;;3.50;;
57029;SDS011;42920;45.306;20.448;2023-04-25T11:13:38;4.78;;;3.22;;
57029;SDS011;42920;45.306;20.448;2023-04-25T11:16:07;5.30;;;3.20;;
57029;SDS011;42920;45.306;20.448;2023-04-25T11:18:33;6.25;;;3.55;;
57029;SDS011;42920;45.306;20.448;2023-04-25T11:20:59;15.70;;;6.32;;
57029;SDS011;42920;45.306;20.448;2023-04-25T11:23:25;10.18;;;5.22;;
57029;SDS011;42920;45.306;20.448;2023-04-25T11:25:52;8.10;;;4.03;;
57029;SDS011;42920;45.306;20.448;2023-04-25T11:28:21;6.35;;;4.32;;
57029;SDS011;42920;45.306;20.448;2023-04-25T11:30:48;9.40;;;4.82;;
57029;SDS011;42920;45.306;20.448;2023-04-25T11:33:15;14.98;;;5.22;;
57029;SDS011;42920;45.306;20.448;2023-04-25T11:35:42;6.05;;;3.78;;
57029;SDS011;42920;45.306;20.448;2023-04-25T11:38:08;8.43;;;3.97;;
57029;SDS011;42920;45.306;20.448;2023-04-25T11:40:35;6.30;;;4.30;;
57029;SDS011;42920;45.306;20.448;2023-04-25T11:43:01;7.45;;;3.78;;
57029;SDS011;42920;45.306;20.448;2023-04-25T11:45:27;7.78;;;4.32;;
57029;SDS011;42920;45.306;20.448;2023-04-25T11:47:55;5.97;;;3.08;;
57029;SDS011;42920;45.306;20.448;2023-04-25T11:50:21;6.70;;;3.83;;
57029;SDS011;42920;45.306;20.448;2023-04-25T11:52:47;6.50;;;3.92;;
57029;SDS011;42920;45.306;20.448;2023-04-25T11:55:17;5.47;;;3.08;;
57029;SDS011;42920;45.306;20.448;2023-04-25T11:57:44;7.90;;;3.65;;
57029;SDS011;42920;45.306;20.448;2023-04-25T12:00:16;5.63;;;3.30;;
57029;SDS011;42920;45.306;20.448;2023-04-25T12:02:46;7.90;;;3.70;;
57029;SDS011;42920;45.306;20.448;2023-04-25T12:05:15;7.63;;;3.78;;
57029;SDS011;42920;45.306;20.448;2023-04-25T12:07:41;9.52;;;3.80;;
57029;SDS011;42920;45.306;20.448;2023-04-25T12:12:35;6.95;;;3.95;;
57029;SDS011;42920;45.306;20.448;2023-04-25T12:15:15;6.07;;;3.65;;
57029;SDS011;42920;45.306;20.448;2023-04-25T12:17:48;7.60;;;3.85;;
57029;SDS011;42920;45.306;20.448;2023-04-25T12:20:15;5.75;;;3.42;;
57029;SDS011;42920;45.306;20.448;2023-04-25T12:22:51;10.82;;;3.05;;
57029;SDS011;42920;45.306;20.448;2023-04-25T12:28:11;8.15;;;3.88;;
57029;SDS011;42920;45.306;20.448;2023-04-25T12:33:26;9.63;;;4.15;;
57029;SDS011;42920;45.306;20.448;2023-04-25T12:35:53;5.82;;;3.45;;
57029;SDS011;42920;45.306;20.448;2023-04-25T12:38:23;6.90;;;3.63;;
57029;SDS011;42920;45.306;20.448;2023-04-25T12:40:50;4.57;;;3.05;;
57029;SDS011;42920;45.306;20.448;2023-04-25T12:43:16;9.27;;;4.40;;
57029;SDS011;42920;45.306;20.448;2023-04-25T12:45:43;12.20;;;4.15;;
57029;SDS011;42920;45.306;20.448;2023-04-25T12:48:09;6.65;;;3.63;;
57029;SDS011;42920;45.306;20.448;2023-04-25T12:50:35;7.82;;;4.45;;
57029;SDS011;42920;45.306;20.448;2023-04-25T12:53:01;7.03;;;3.75;;
57029;SDS011;42920;45.306;20.448;2023-04-25T12:55:26;7.90;;;4.43;;
57029;SDS011;42920;45.306;20.448;2023-04-25T12:57:52;9.65;;;4.95;;
57029;SDS011;42920;45.306;20.448;2023-04-25T13:00:18;10.00;;;4.88;;
57029;SDS011;42920;45.306;20.448;2023-04-25T13:02:45;7.70;;;4.30;;
57029;SDS011;42920;45.306;20.448;2023-04-25T13:05:12;4.95;;;2.85;;
57029;SDS011;42920;45.306;20.448;2023-04-25T13:07:38;6.85;;;3.97;;
57029;SDS011;42920;45.306;20.448;2023-04-25T13:10:04;5.72;;;3.42;;
57029;SDS011;42920;45.306;20.448;2023-04-25T13:12:30;6.57;;;3.45;;
57029;SDS011;42920;45.306;20.448;2023-04-25T13:14:57;4.72;;;2.90;;
57029;SDS011;42920;45.306;20.448;2023-04-25T13:17:23;11.18;;;2.60;;
57029;SDS011;42920;45.306;20.448;2023-04-25T13:19:48;6.38;;;3.20;;
57029;SDS011;42920;45.306;20.448;2023-04-25T13:22:14;5.32;;;3.25;;
57029;SDS011;42920;45.306;20.448;2023-04-25T13:24:41;4.32;;;2.53;;
57029;SDS011;42920;45.306;20.448;2023-04-25T13:27:07;4.57;;;2.28;;
57029;SDS011;42920;45.306;20.448;2023-04-25T13:29:33;4.35;;;2.25;;
57029;SDS011;42920;45.306;20.448;2023-04-25T13:32:00;6.47;;;3.28;;
57029;SDS011;42920;45.306;20.448;2023-04-25T13:34:27;6.95;;;3.15;;
57029;SDS011;42920;45.306;20.448;2023-04-25T13:36:53;7.13;;;3.92;;
57029;SDS011;42920;45.306;20.448;2023-04-25T13:39:19;4.90;;;2.85;;
57029;SDS011;42920;45.306;20.448;2023-04-25T13:41:45;5.25;;;2.95;;
57029;SDS011;42920;45.306;20.448;2023-04-25T13:44:11;4.70;;;2.88;;
57029;SDS011;42920;45.306;20.448;2023-04-25T13:46:37;5.18;;;3.33;;
57029;SDS011;42920;45.306;20.448;2023-04-25T13:49:03;4.38;;;2.50;;
57029;SDS011;42920;45.306;20.448;2023-04-25T13:51:29;7.85;;;4.40;;
57029;SDS011;42920;45.306;20.448;2023-04-25T13:53:55;8.70;;;4.78;;
57029;SDS011;42920;45.306;20.448;2023-04-25T13:56:21;7.03;;;2.20;;
57029;SDS011;42920;45.306;20.448;2023-04-25T13:58:48;4.25;;;2.70;;
57029;SDS011;42920;45.306;20.448;2023-04-25T14:01:15;8.50;;;3.20;;
57029;SDS011;42920;45.306;20.448;2023-04-25T14:03:40;4.38;;;2.92;;
57029;SDS011;42920;45.306;20.448;2023-04-25T14:06:07;4.93;;;2.97;;
57029;SDS011;42920;45.306;20.448;2023-04-25T14:08:33;6.07;;;2.60;;
57029;SDS011;42920;45.306;20.448;2023-04-25T14:10:59;4.28;;;2.60;;
57029;SDS011;42920;45.306;20.448;2023-04-25T14:13:25;6.22;;;2.92;;
57029;SDS011;42920;45.306;20.448;2023-04-25T14:15:51;3.95;;;2.60;;
57029;SDS011;42920;45.306;20.448;2023-04-25T14:18:17;6.07;;;2.58;;
57029;SDS011;42920;45.306;20.448;2023-04-25T14:20:44;5.25;;;2.38;;
57029;SDS011;42920;45.306;20.448;2023-04-25T14:23:10;4.97;;;3.30;;
57029;SDS011;42920;45.306;20.448;2023-04-25T14:25:36;5.78;;;3.30;;
57029;SDS011;42920;45.306;20.448;2023-04-25T14:28:02;7.00;;;3.83;;
57029;SDS011;42920;45.306;20.448;2023-04-25T14:30:28;8.70;;;5.65;;
57029;SDS011;42920;45.306;20.448;2023-04-25T14:32:54;8.32;;;4.20;;
57029;SDS011;42920;45.306;20.448;2023-04-25T14:35:20;5.90;;;3.45;;
57029;SDS011;42920;45.306;20.448;2023-04-25T14:37:46;7.85;;;3.03;;
57029;SDS011;42920;45.306;20.448;2023-04-25T14:40:12;3.55;;;2.42;;
57029;SDS011;42920;45.306;20.448;2023-04-25T14:42:40;4.25;;;2.30;;
57029;SDS011;42920;45.306;20.448;2023-04-25T14:45:06;5.68;;;2.50;;
57029;SDS011;42920;45.306;20.448;2023-04-25T14:47:33;3.92;;;2.55;;
57029;SDS011;42920;45.306;20.448;2023-04-25T14:50:00;5.75;;;2.50;;
57029;SDS011;42920;45.306;20.448;2023-04-25T14:52:26;4.75;;;2.83;;
57029;SDS011;42920;45.306;20.448;2023-04-25T14:54:52;6.15;;;2.70;;
57029;SDS011;42920;45.306;20.448;2023-04-25T14:57:18;5.53;;;2.72;;
57029;SDS011;42920;45.306;20.448;2023-04-25T14:59:44;6.10;;;3.20;;
57029;SDS011;42920;45.306;20.448;2023-04-25T15:02:10;4.53;;;2.85;;
57029;SDS011;42920;45.306;20.448;2023-04-25T15:04:36;8.20;;;3.53;;
57029;SDS011;42920;45.306;20.448;2023-04-25T15:07:02;7.80;;;3.45;;
57029;SDS011;42920;45.306;20.448;2023-04-25T15:09:29;9.70;;;4.40;;
57029;SDS011;42920;45.306;20.448;2023-04-25T15:11:54;4.90;;;3.40;;
57029;SDS011;42920;45.306;20.448;2023-04-25T15:14:21;6.88;;;3.85;;
57029;SDS011;42920;45.306;20.448;2023-04-25T15:16:47;4.95;;;3.15;;
57029;SDS011;42920;45.306;20.448;2023-04-25T15:19:12;6.70;;;3.47;;
57029;SDS011;42920;45.306;20.448;2023-04-25T15:21:39;14.10;;;4.75;;
57029;SDS011;42920;45.306;20.448;2023-04-25T15:24:05;6.57;;;3.25;;
57029;SDS011;42920;45.306;20.448;2023-04-25T15:26:31;5.95;;;3.60;;
57029;SDS011;42920;45.306;20.448;2023-04-25T15:28:57;7.30;;;3.88;;
57029;SDS011;42920;45.306;20.448;2023-04-25T15:31:22;5.53;;;3.03;;
57029;SDS011;42920;45.306;20.448;2023-04-25T15:33:48;7.32;;;3.83;;
57029;SDS011;42920;45.306;20.448;2023-04-25T15:36:14;12.52;;;4.05;;
57029;SDS011;42920;45.306;20.448;2023-04-25T15:38:42;6.38;;;4.15;;
57029;SDS011;42920;45.306;20.448;2023-04-25T15:41:08;9.70;;;4.70;;
57029;SDS011;42920;45.306;20.448;2023-04-25T15:43:33;8.52;;;3.92;;
57029;SDS011;42920;45.306;20.448;2023-04-25T15:46:02;5.25;;;2.78;;
57029;SDS011;42920;45.306;20.448;2023-04-25T15:48:31;5.47;;;2.83;;
57029;SDS011;42920;45.306;20.448;2023-04-25T15:50:57;4.60;;;2.90;;
57029;SDS011;42920;45.306;20.448;2023-04-25T15:53:23;9.20;;;4.00;;
57029;SDS011;42920;45.306;20.448;2023-04-25T15:55:49;7.25;;;3.33;;
57029;SDS011;42920;45.306;20.448;2023-04-25T15:58:15;11.15;;;4.25;;
57029;SDS011;42920;45.306;20.448;2023-04-25T16:00:40;8.43;;;2.97;;
57029;SDS011;42920;45.306;20.448;2023-04-25T16:03:07;8.52;;;4.82;;
57029;SDS011;42920;45.306;20.448;2023-04-25T16:05:33;6.93;;;3.63;;
57029;SDS011;42920;45.306;20.448;2023-04-25T16:08:00;7.47;;;3.55;;
57029;SDS011;42920;45.306;20.448;2023-04-25T16:10:26;13.55;;;5.22;;
57029;SDS011;42920;45.306;20.448;2023-04-25T16:12:51;8.23;;;4.50;;
57029;SDS011;42920;45.306;20.448;2023-04-25T16:15:17;9.65;;;4.30;;
57029;SDS011;42920;45.306;20.448;2023-04-25T16:17:43;8.82;;;4.97;;
57029;SDS011;42920;45.306;20.448;2023-04-25T16:20:10;8.95;;;4.47;;
57029;SDS011;42920;45.306;20.448;2023-04-25T16:22:40;13.93;;;7.25;;
57029;SDS011;42920;45.306;20.448;2023-04-25T16:25:07;5.78;;;3.42;;
57029;SDS011;42920;45.306;20.448;2023-04-25T16:27:34;9.18;;;4.47;;
57029;SDS011;42920;45.306;20.448;2023-04-25T16:30:02;13.00;;;6.60;;
57029;SDS011;42920;45.306;20.448;2023-04-25T16:32:28;15.65;;;7.65;;
57029;SDS011;42920;45.306;20.448;2023-04-25T16:34:53;11.75;;;6.63;;
57029;SDS011;42920;45.306;20.448;2023-04-25T16:37:19;7.63;;;5.00;;
57029;SDS011;42920;45.306;20.448;2023-04-25T16:39:45;12.38;;;6.47;;
57029;SDS011;42920;45.306;20.448;2023-04-25T16:42:11;8.70;;;5.30;;
57029;SDS011;42920;45.306;20.448;2023-04-25T16:44:37;9.77;;;5.68;;
57029;SDS011;42920;45.306;20.448;2023-04-25T16:47:03;7.70;;;4.13;;
57029;SDS011;42920;45.306;20.448;2023-04-25T16:49:30;9.68;;;6.00;;
57029;SDS011;42920;45.306;20.448;2023-04-25T16:51:56;11.95;;;5.60;;
57029;SDS011;42920;45.306;20.448;2023-04-25T16:54:21;9.85;;;5.50;;
57029;SDS011;42920;45.306;20.448;2023-04-25T16:56:49;8.55;;;4.13;;
57029;SDS011;42920;45.306;20.448;2023-04-25T16:59:15;8.60;;;4.40;;
57029;SDS011;42920;45.306;20.448;2023-04-25T17:01:41;8.57;;;4.63;;
57029;SDS011;42920;45.306;20.448;2023-04-25T17:04:07;9.80;;;5.05;;
57029;SDS011;42920;45.306;20.448;2023-04-25T17:06:32;7.88;;;4.28;;
57029;SDS011;42920;45.306;20.448;2023-04-25T17:08:59;12.70;;;5.10;;
57029;SDS011;42920;45.306;20.448;2023-04-25T17:11:24;9.80;;;5.47;;
57029;SDS011;42920;45.306;20.448;2023-04-25T17:13:50;14.07;;;6.43;;
57029;SDS011;42920;45.306;20.448;2023-04-25T17:16:19;11.30;;;5.53;;
57029;SDS011;42920;45.306;20.448;2023-04-25T17:18:49;12.82;;;6.05;;
57029;SDS011;42920;45.306;20.448;2023-04-25T17:21:15;14.68;;;6.15;;
57029;SDS011;42920;45.306;20.448;2023-04-25T17:23:41;9.48;;;4.35;;
57029;SDS011;42920;45.306;20.448;2023-04-25T17:26:12;13.45;;;5.25;;
57029;SDS011;42920;45.306;20.448;2023-04-25T17:28:39;11.25;;;4.38;;
57029;SDS011;42920;45.306;20.448;2023-04-25T17:31:06;15.70;;;6.82;;
57029;SDS011;42920;45.306;20.448;2023-04-25T17:33:32;19.95;;;8.30;;
57029;SDS011;42920;45.306;20.448;2023-04-25T17:35:58;28.20;;;11.25;;
57029;SDS011;42920;45.306;20.448;2023-04-25T17:38:24;22.80;;;12.23;;
57029;SDS011;42920;45.306;20.448;2023-04-25T17:40:50;23.98;;;11.25;;
57029;SDS011;42920;45.306;20.448;2023-04-25T17:43:15;9.52;;;4.45;;
57029;SDS011;42920;45.306;20.448;2023-04-25T17:45:42;8.38;;;4.57;;
57029;SDS011;42920;45.306;20.448;2023-04-25T17:48:08;32.17;;;18.70;;
57029;SDS011;42920;45.306;20.448;2023-04-25T17:50:33;18.02;;;12.40;;
57029;SDS011;42920;45.306;20.448;2023-04-25T17:52:59;11.65;;;7.38;;
57029;SDS011;42920;45.306;20.448;2023-04-25T17:55:27;10.82;;;5.68;;
57029;SDS011;42920;45.306;20.448;2023-04-25T17:57:54;10.73;;;6.75;;
57029;SDS011;42920;45.306;20.448;2023-04-25T18:00:20;9.70;;;6.25;;
57029;SDS011;42920;45.306;20.448;2023-04-25T18:02:45;12.27;;;6.57;;
57029;SDS011;42920;45.306;20.448;2023-04-25T18:05:12;11.77;;;7.38;;
57029;SDS011;42920;45.306;20.448;2023-04-25T18:07:39;9.15;;;6.28;;
57029;SDS011;42920;45.306;20.448;2023-04-25T18:10:06;11.73;;;6.05;;
57029;SDS011;42920;45.306;20.448;2023-04-25T18:12:35;10.32;;;5.90;;
57029;SDS011;42920;45.306;20.448;2023-04-25T18:15:02;10.43;;;5.65;;
57029;SDS011;42920;45.306;20.448;2023-04-25T18:17:34;11.00;;;6.20;;
57029;SDS011;42920;45.306;20.448;2023-04-25T18:20:10;14.70;;;6.65;;
57029;SDS011;42920;45.306;20.448;2023-04-25T18:22:41;13.05;;;6.82;;
57029;SDS011;42920;45.306;20.448;2023-04-25T18:25:08;11.20;;;6.35;;
57029;SDS011;42920;45.306;20.448;2023-04-25T18:27:35;15.18;;;6.80;;
57029;SDS011;42920;45.306;20.448;2023-04-25T18:30:03;13.98;;;7.93;;
57029;SDS011;42920;45.306;20.448;2023-04-25T18:32:33;14.35;;;9.27;;
57029;SDS011;42920;45.306;20.448;2023-04-25T18:34:59;14.65;;;10.20;;
57029;SDS011;42920;45.306;20.448;2023-04-25T18:37:25;17.70;;;10.00;;
57029;SDS011;42920;45.306;20.448;2023-04-25T18:39:52;13.05;;;10.23;;
57029;SDS011;42920;45.306;20.448;2023-04-25T18:42:18;13.77;;;8.60;;
57029;SDS011;42920;45.306;20.448;2023-04-25T18:44:44;16.00;;;9.68;;
57029;SDS011;42920;45.306;20.448;2023-04-25T18:47:10;9.80;;;7.35;;
57029;SDS011;42920;45.306;20.448;2023-04-25T18:49:39;16.40;;;10.25;;
57029;SDS011;42920;45.306;20.448;2023-04-25T18:52:05;11.68;;;8.65;;
57029;SDS011;42920;45.306;20.448;2023-04-25T18:54:36;14.25;;;8.40;;
57029;SDS011;42920;45.306;20.448;2023-04-25T18:57:03;14.88;;;9.15;;
57029;SDS011;42920;45.306;20.448;2023-04-25T18:59:30;17.35;;;8.95;;
57029;SDS011;42920;45.306;20.448;2023-04-25T19:01:56;24.65;;;12.07;;
57029;SDS011;42920;45.306;20.448;2023-04-25T19:04:24;20.88;;;12.52;;
57029;SDS011;42920;45.306;20.448;2023-04-25T19:06:50;29.50;;;14.35;;
57029;SDS011;42920;45.306;20.448;2023-04-25T19:09:16;28.77;;;15.05;;
57029;SDS011;42920;45.306;20.448;2023-04-25T19:11:42;24.67;;;12.70;;
57029;SDS011;42920;45.306;20.448;2023-04-25T19:14:08;18.63;;;7.95;;
57029;SDS011;42920;45.306;20.448;2023-04-25T19:16:34;10.65;;;5.95;;
57029;SDS011;42920;45.306;20.448;2023-04-25T19:19:03;8.43;;;5.30;;
57029;SDS011;42920;45.306;20.448;2023-04-25T19:21:29;10.98;;;5.45;;
57029;SDS011;42920;45.306;20.448;2023-04-25T19:23:58;13.18;;;6.35;;
57029;SDS011;42920;45.306;20.448;2023-04-25T19:26:26;10.80;;;5.47;;
57029;SDS011;42920;45.306;20.448;2023-04-25T19:29:04;10.93;;;6.43;;
57029;SDS011;42920;45.306;20.448;2023-04-25T19:31:35;12.43;;;6.97;;
57029;SDS011;42920;45.306;20.448;2023-04-25T19:34:02;13.30;;;7.18;;
57029;SDS011;42920;45.306;20.448;2023-04-25T19:36:29;17.52;;;9.35;;
57029;SDS011;42920;45.306;20.448;2023-04-25T19:38:55;19.40;;;10.65;;
57029;SDS011;42920;45.306;20.448;2023-04-25T19:41:27;19.15;;;11.77;;
57029;SDS011;42920;45.306;20.448;2023-04-25T19:43:54;30.08;;;12.95;;
57029;SDS011;42920;45.306;20.448;2023-04-25T19:46:19;31.35;;;14.40;;
57029;SDS011;42920;45.306;20.448;2023-04-25T19:48:45;31.48;;;13.95;;
57029;SDS011;42920;45.306;20.448;2023-04-25T19:51:11;34.42;;;16.70;;
57029;SDS011;42920;45.306;20.448;2023-04-25T19:53:37;36.65;;;14.70;;
57029;SDS011;42920;45.306;20.448;2023-04-25T19:56:03;26.13;;;14.60;;
57029;SDS011;42920;45.306;20.448;2023-04-25T19:58:29;17.83;;;10.93;;
57029;SDS011;42920;45.306;20.448;2023-04-25T20:00:55;17.92;;;10.55;;
57029;SDS011;42920;45.306;20.448;2023-04-25T20:03:21;17.55;;;9.70;;
57029;SDS011;42920;45.306;20.448;2023-04-25T20:05:47;14.80;;;9.50;;
57029;SDS011;42920;45.306;20.448;2023-04-25T20:08:13;16.52;;;10.02;;
57029;SDS011;42920;45.306;20.448;2023-04-25T20:10:39;14.25;;;8.98;;
57029;SDS011;42920;45.306;20.448;2023-04-25T20:13:05;20.35;;;10.93;;
57029;SDS011;42920;45.306;20.448;2023-04-25T20:15:31;18.08;;;9.27;;
57029;SDS011;42920;45.306;20.448;2023-04-25T20:17:57;17.83;;;9.55;;
57029;SDS011;42920;45.306;20.448;2023-04-25T20:20:23;12.98;;;8.35;;
57029;SDS011;42920;45.306;20.448;2023-04-25T20:22:48;21.25;;;10.82;;
57029;SDS011;42920;45.306;20.448;2023-04-25T20:25:15;15.98;;;9.57;;
57029;SDS011;42920;45.306;20.448;2023-04-25T20:27:41;15.00;;;9.70;;
57029;SDS011;42920;45.306;20.448;2023-04-25T20:30:08;17.38;;;9.90;;
57029;SDS011;42920;45.306;20.448;2023-04-25T20:32:35;18.40;;;10.95;;
57029;SDS011;42920;45.306;20.448;2023-04-25T20:35:01;22.45;;;10.68;;
57029;SDS011;42920;45.306;20.448;2023-04-25T20:37:29;20.95;;;11.05;;
57029;SDS011;42920;45.306;20.448;2023-04-25T20:39:58;17.90;;;10.27;;
57029;SDS011;42920;45.306;20.448;2023-04-25T20:42:25;16.25;;;9.80;;
57029;SDS011;42920;45.306;20.448;2023-04-25T20:44:50;20.90;;;11.18;;
57029;SDS011;42920;45.306;20.448;2023-04-25T20:47:17;28.98;;;12.48;;
57029;SDS011;42920;45.306;20.448;2023-04-25T20:49:43;20.98;;;11.23;;
57029;SDS011;42920;45.306;20.448;2023-04-25T20:52:09;18.20;;;11.88;;
57029;SDS011;42920;45.306;20.448;2023-04-25T20:54:36;18.70;;;11.40;;
57029;SDS011;42920;45.306;20.448;2023-04-25T20:57:02;23.02;;;11.57;;
57029;SDS011;42920;45.306;20.448;2023-04-25T20:59:28;24.75;;;10.70;;
57029;SDS011;42920;45.306;20.448;2023-04-25T21:01:54;18.13;;;10.82;;
57029;SDS011;42920;45.306;20.448;2023-04-25T21:04:20;18.88;;;10.35;;
57029;SDS011;42920;45.306;20.448;2023-04-25T21:06:46;22.83;;;10.30;;
57029;SDS011;42920;45.306;20.448;2023-04-25T21:09:12;16.25;;;10.80;;
57029;SDS011;42920;45.306;20.448;2023-04-25T21:11:38;18.98;;;10.30;;
57029;SDS011;42920;45.306;20.448;2023-04-25T21:14:05;18.00;;;11.10;;
57029;SDS011;42920;45.306;20.448;2023-04-25T21:16:31;26.88;;;12.68;;
57029;SDS011;42920;45.306;20.448;2023-04-25T21:18:59;26.60;;;13.73;;
57029;SDS011;42920;45.306;20.448;2023-04-25T21:21:26;22.73;;;13.23;;
57029;SDS011;42920;45.306;20.448;2023-04-25T21:23:52;25.88;;;14.93;;
57029;SDS011;42920;45.306;20.448;2023-04-25T21:26:19;31.75;;;16.05;;
57029;SDS011;42920;45.306;20.448;2023-04-25T21:28:46;27.90;;;15.68;;
57029;SDS011;42920;45.306;20.448;2023-04-25T21:31:12;33.85;;;16.42;;
57029;SDS011;42920;45.306;20.448;2023-04-25T21:33:38;30.15;;;13.98;;
57029;SDS011;42920;45.306;20.448;2023-04-25T21:36:04;25.20;;;13.25;;
57029;SDS011;42920;45.306;20.448;2023-04-25T21:38:30;27.85;;;14.45;;
57029;SDS011;42920;45.306;20.448;2023-04-25T21:40:56;25.10;;;12.85;;
57029;SDS011;42920;45.306;20.448;2023-04-25T21:43:22;32.60;;;13.82;;
57029;SDS011;42920;45.306;20.448;2023-04-25T21:45:47;23.83;;;13.65;;
57029;SDS011;42920;45.306;20.448;2023-04-25T21:48:13;26.70;;;12.90;;
57029;SDS011;42920;45.306;20.448;2023-04-25T21:50:39;27.10;;;11.50;;
57029;SDS011;42920;45.306;20.448;2023-04-25T21:53:05;26.52;;;13.65;;
57029;SDS011;42920;45.306;20.448;2023-04-25T21:55:31;26.63;;;13.07;;
57029;SDS011;42920;45.306;20.448;2023-04-25T21:57:56;26.83;;;13.65;;
57029;SDS011;42920;45.306;20.448;2023-04-25T22:00:22;34.38;;;15.15;;
57029;SDS011;42920;45.306;20.448;2023-04-25T22:02:54;23.15;;;12.30;;
57029;SDS011;42920;45.306;20.448;2023-04-25T22:05:20;24.90;;;12.73;;
57029;SDS011;42920;45.306;20.448;2023-04-25T22:07:48;28.67;;;14.10;;
57029;SDS011;42920;45.306;20.448;2023-04-25T22:10:14;25.02;;;13.07;;
57029;SDS011;42920;45.306;20.448;2023-04-25T22:12:40;27.30;;;11.57;;
57029;SDS011;42920;45.306;20.448;2023-04-25T22:15:06;31.80;;;12.70;;
57029;SDS011;42920;45.306;20.448;2023-04-25T22:17:33;27.83;;;13.02;;
57029;SDS011;42920;45.306;20.448;2023-04-25T22:19:59;16.48;;;9.48;;
57029;SDS011;42920;45.306;20.448;2023-04-25T22:22:29;19.13;;;10.98;;
57029;SDS011;42920;45.306;20.448;2023-04-25T22:24:54;16.00;;;9.52;;
57029;SDS011;42920;45.306;20.448;2023-04-25T22:27:20;18.67;;;9.82;;
57029;SDS011;42920;45.306;20.448;2023-04-25T22:32:11;15.45;;;9.10;;
57029;SDS011;42920;45.306;20.448;2023-04-25T22:34:37;13.50;;;8.27;;
57029;SDS011;42920;45.306;20.448;2023-04-25T22:37:03;14.60;;;8.43;;
57029;SDS011;42920;45.306;20.448;2023-04-25T22:39:28;14.93;;;7.80;;
57029;SDS011;42920;45.306;20.448;2023-04-25T22:41:54;12.43;;;7.45;;
57029;SDS011;42920;45.306;20.448;2023-04-25T22:46:46;11.10;;;6.53;;
57029;SDS011;42920;45.306;20.448;2023-04-25T22:49:12;12.18;;;7.63;;
57029;SDS011;42920;45.306;20.448;2023-04-25T22:51:38;10.45;;;6.95;;
57029;SDS011;42920;45.306;20.448;2023-04-25T22:54:04;13.48;;;7.43;;
57029;SDS011;42920;45.306;20.448;2023-04-25T22:56:30;12.15;;;7.78;;
57029;SDS011;42920;45.306;20.448;2023-04-25T22:58:56;13.90;;;6.68;;
57029;SDS011;42920;45.306;20.448;2023-04-25T23:01:22;9.45;;;7.15;;
57029;SDS011;42920;45.306;20.448;2023-04-25T23:03:49;10.88;;;6.60;;
57029;SDS011;42920;45.306;20.448;2023-04-25T23:06:14;9.95;;;6.43;;
57029;SDS011;42920;45.306;20.448;2023-04-25T23:08:41;10.18;;;6.53;;
57029;SDS011;42920;45.306;20.448;2023-04-25T23:11:07;8.93;;;5.70;;
57029;SDS011;42920;45.306;20.448;2023-04-25T23:13:33;10.55;;;6.30;;
57029;SDS011;42920;45.306;20.448;2023-04-25T23:16:06;11.30;;;6.18;;
57029;SDS011;42920;45.306;20.448;2023-04-25T23:18:33;9.70;;;6.55;;
57029;SDS011;42920;45.306;20.448;2023-04-25T23:20:59;10.45;;;5.65;;
57029;SDS011;42920;45.306;20.448;2023-04-25T23:23:26;11.40;;;7.53;;
57029;SDS011;42920;45.306;20.448;2023-04-25T23:25:52;8.65;;;6.40;;
57029;SDS011;42920;45.306;20.448;2023-04-25T23:28:18;10.27;;;6.57;;
57029;SDS011;42920;45.306;20.448;2023-04-25T23:30:43;10.75;;;7.10;;
57029;SDS011;42920;45.306;20.448;2023-04-25T23:33:09;10.50;;;6.93;;
57029;SDS011;42920;45.306;20.448;2023-04-25T23:35:35;8.15;;;6.13;;
57029;SDS011;42920;45.306;20.448;2023-04-25T23:38:01;11.13;;;6.97;;
57029;SDS011;42920;45.306;20.448;2023-04-25T23:40:27;12.93;;;7.22;;
57029;SDS011;42920;45.306;20.448;2023-04-25T23:42:53;9.90;;;7.15;;
57029;SDS011;42920;45.306;20.448;2023-04-25T23:45:18;9.18;;;6.15;;
57029;SDS011;42920;45.306;20.448;2023-04-25T23:47:45;8.85;;;6.72;;
57029;SDS011;42920;45.306;20.448;2023-04-25T23:50:10;11.32;;;6.88;;
57029;SDS011;42920;45.306;20.448;2023-04-25T23:52:37;10.57;;;7.15;;
57029;SDS011;42920;45.306;20.448;2023-04-25T23:55:03;10.02;;;7.25;;
57029;SDS011;42920;45.306;20.448;2023-04-25T23:57:29;9.90;;;7.00;;
57029;SDS011;42920;45.306;20.448;2023-04-25T23:59:56;10.38;;;6.65;;
